Metar Aviation Weather Data EIDW Dublin

7°C Temp
5°C Dewpoint
87% Humidity
Temperature
3 KM/H
2 MPH
2 KTS
240°
West South
West

Wind Speed
Clear
Conditions
Pressure 1018 (hPa) - 30.06 (in)
Visibility 6.2 (mi) - 10 (km)

Current Conditions
EIDW
Dublin
Metar :EIDW 160000Z 24002KT CAVOK 07/05 Q1018 NOSIG
Fri 16th November 01:00 am

Dublin
  Metar Aviation API Data Provided by https://www.checkwx.com/ PHP scripts by weather34.com ©2018